sensor_id;sensor_type;location;lat;lon;timestamp;temperature;humidity
1021;DHT22;499;42.648;23.270;2022-08-03T00:00:20;18.90;27.20
1021;DHT22;499;42.648;23.270;2022-08-03T00:02:50;18.90;27.80
1021;DHT22;499;42.648;23.270;2022-08-03T00:05:17;18.90;28.10
1021;DHT22;499;42.648;23.270;2022-08-03T00:07:44;18.90;28.20
1021;DHT22;499;42.648;23.270;2022-08-03T00:10:12;18.90;28.10
1021;DHT22;499;42.648;23.270;2022-08-03T00:12:39;18.90;28.80
1021;DHT22;499;42.648;23.270;2022-08-03T00:15:07;18.90;29.40
1021;DHT22;499;42.648;23.270;2022-08-03T00:17:34;18.90;28.60
1021;DHT22;499;42.648;23.270;2022-08-03T00:20:02;18.90;29.20
1021;DHT22;499;42.648;23.270;2022-08-03T00:22:30;18.90;29.20
1021;DHT22;499;42.648;23.270;2022-08-03T00:24:57;18.90;29.20
1021;DHT22;499;42.648;23.270;2022-08-03T00:27:24;18.90;28.40
1021;DHT22;499;42.648;23.270;2022-08-03T00:29:51;18.90;29.30
1021;DHT22;499;42.648;23.270;2022-08-03T00:32:18;18.90;29.30
1021;DHT22;499;42.648;23.270;2022-08-03T00:34:45;18.80;29.40
1021;DHT22;499;42.648;23.270;2022-08-03T00:37:13;18.80;29.60
1021;DHT22;499;42.648;23.270;2022-08-03T00:39:40;18.80;30.70
1021;DHT22;499;42.648;23.270;2022-08-03T00:42:08;18.80;30.80
1021;DHT22;499;42.648;23.270;2022-08-03T00:44:38;18.80;30.90
1021;DHT22;499;42.648;23.270;2022-08-03T00:47:05;18.80;31.30
1021;DHT22;499;42.648;23.270;2022-08-03T00:49:32;18.80;33.00
1021;DHT22;499;42.648;23.270;2022-08-03T00:52:00;18.70;33.70
1021;DHT22;499;42.648;23.270;2022-08-03T00:54:29;18.70;33.60
1021;DHT22;499;42.648;23.270;2022-08-03T00:56:56;18.70;33.30
1021;DHT22;499;42.648;23.270;2022-08-03T00:59:23;18.70;33.70
1021;DHT22;499;42.648;23.270;2022-08-03T01:01:50;18.70;33.70
1021;DHT22;499;42.648;23.270;2022-08-03T01:04:21;18.70;34.60
1021;DHT22;499;42.648;23.270;2022-08-03T01:06:53;18.60;35.30
1021;DHT22;499;42.648;23.270;2022-08-03T01:09:25;18.60;36.90
1021;DHT22;499;42.648;23.270;2022-08-03T01:12:03;18.50;38.30
1021;DHT22;499;42.648;23.270;2022-08-03T01:14:34;18.50;38.50
1021;DHT22;499;42.648;23.270;2022-08-03T01:17:09;18.50;38.40
1021;DHT22;499;42.648;23.270;2022-08-03T01:19:44;18.50;37.30
1021;DHT22;499;42.648;23.270;2022-08-03T01:22:30;18.40;38.30
1021;DHT22;499;42.648;23.270;2022-08-03T01:25:08;18.30;40.10
1021;DHT22;499;42.648;23.270;2022-08-03T01:27:49;18.30;43.00
1021;DHT22;499;42.648;23.270;2022-08-03T01:30:19;18.20;40.70
1021;DHT22;499;42.648;23.270;2022-08-03T01:32:51;18.30;40.40
1021;DHT22;499;42.648;23.270;2022-08-03T01:35:24;18.30;39.60
1021;DHT22;499;42.648;23.270;2022-08-03T01:37:55;18.30;38.20
1021;DHT22;499;42.648;23.270;2022-08-03T01:40:24;18.30;38.20
1021;DHT22;499;42.648;23.270;2022-08-03T01:42:54;18.40;39.50
1021;DHT22;499;42.648;23.270;2022-08-03T01:45:24;18.40;37.20
1021;DHT22;499;42.648;23.270;2022-08-03T01:47:53;18.40;39.80
1021;DHT22;499;42.648;23.270;2022-08-03T01:50:24;18.30;41.30
1021;DHT22;499;42.648;23.270;2022-08-03T01:52:53;18.30;41.50
1021;DHT22;499;42.648;23.270;2022-08-03T01:55:22;18.20;42.90
1021;DHT22;499;42.648;23.270;2022-08-03T01:57:53;18.10;43.90
1021;DHT22;499;42.648;23.270;2022-08-03T02:00:23;18.20;43.50
1021;DHT22;499;42.648;23.270;2022-08-03T02:02:51;18.30;42.20
1021;DHT22;499;42.648;23.270;2022-08-03T02:05:20;18.30;41.70
1021;DHT22;499;42.648;23.270;2022-08-03T02:07:48;18.20;42.50
1021;DHT22;499;42.648;23.270;2022-08-03T02:10:18;18.10;47.90
1021;DHT22;499;42.648;23.270;2022-08-03T02:12:46;18.10;46.50
1021;DHT22;499;42.648;23.270;2022-08-03T02:15:15;18.00;47.40
1021;DHT22;499;42.648;23.270;2022-08-03T02:17:46;17.90;50.10
1021;DHT22;499;42.648;23.270;2022-08-03T02:20:15;17.90;50.80
1021;DHT22;499;42.648;23.270;2022-08-03T02:22:43;17.90;51.00
1021;DHT22;499;42.648;23.270;2022-08-03T02:25:13;17.90;50.00
1021;DHT22;499;42.648;23.270;2022-08-03T02:27:48;17.90;48.90
1021;DHT22;499;42.648;23.270;2022-08-03T02:30:17;17.90;49.80
1021;DHT22;499;42.648;23.270;2022-08-03T02:32:50;17.90;47.50
1021;DHT22;499;42.648;23.270;2022-08-03T02:35:22;17.90;47.10
1021;DHT22;499;42.648;23.270;2022-08-03T02:37:57;17.90;49.00
1021;DHT22;499;42.648;23.270;2022-08-03T02:40:27;17.90;48.40
1021;DHT22;499;42.648;23.270;2022-08-03T02:42:58;17.90;47.40
1021;DHT22;499;42.648;23.270;2022-08-03T02:45:27;17.70;47.20
1021;DHT22;499;42.648;23.270;2022-08-03T02:47:58;17.70;47.20
1021;DHT22;499;42.648;23.270;2022-08-03T02:50:27;17.70;44.60
1021;DHT22;499;42.648;23.270;2022-08-03T02:52:57;17.80;41.90
1021;DHT22;499;42.648;23.270;2022-08-03T02:55:25;17.90;42.20
1021;DHT22;499;42.648;23.270;2022-08-03T02:57:53;17.90;40.50
1021;DHT22;499;42.648;23.270;2022-08-03T03:00:21;18.00;40.00
1021;DHT22;499;42.648;23.270;2022-08-03T03:02:49;18.00;40.30
1021;DHT22;499;42.648;23.270;2022-08-03T03:05:18;18.10;41.70
1021;DHT22;499;42.648;23.270;2022-08-03T03:07:45;18.10;41.60
1021;DHT22;499;42.648;23.270;2022-08-03T03:10:12;18.20;40.20
1021;DHT22;499;42.648;23.270;2022-08-03T03:12:40;18.30;41.00
1021;DHT22;499;42.648;23.270;2022-08-03T03:15:08;18.30;41.40
1021;DHT22;499;42.648;23.270;2022-08-03T03:17:36;18.30;42.90
1021;DHT22;499;42.648;23.270;2022-08-03T03:20:07;18.10;43.30
1021;DHT22;499;42.648;23.270;2022-08-03T03:22:36;18.00;47.40
1021;DHT22;499;42.648;23.270;2022-08-03T03:25:05;18.00;48.90
1021;DHT22;499;42.648;23.270;2022-08-03T03:27:33;18.00;48.90
1021;DHT22;499;42.648;23.270;2022-08-03T03:30:01;17.90;50.10
1021;DHT22;499;42.648;23.270;2022-08-03T03:32:28;17.60;54.10
1021;DHT22;499;42.648;23.270;2022-08-03T03:34:56;17.50;56.20
1021;DHT22;499;42.648;23.270;2022-08-03T03:37:25;17.50;56.10
1021;DHT22;499;42.648;23.270;2022-08-03T03:39:54;17.40;57.40
1021;DHT22;499;42.648;23.270;2022-08-03T03:42:21;17.40;59.30
1021;DHT22;499;42.648;23.270;2022-08-03T03:44:48;17.60;58.40
1021;DHT22;499;42.648;23.270;2022-08-03T03:47:15;17.50;56.20
1021;DHT22;499;42.648;23.270;2022-08-03T03:49:43;17.50;58.80
1021;DHT22;499;42.648;23.270;2022-08-03T03:52:10;17.60;57.60
1021;DHT22;499;42.648;23.270;2022-08-03T03:54:41;17.70;56.90
1021;DHT22;499;42.648;23.270;2022-08-03T03:57:10;17.70;58.40
1021;DHT22;499;42.648;23.270;2022-08-03T03:59:37;17.80;57.90
1021;DHT22;499;42.648;23.270;2022-08-03T04:02:05;17.90;58.60
1021;DHT22;499;42.648;23.270;2022-08-03T04:04:32;18.00;56.60
1021;DHT22;499;42.648;23.270;2022-08-03T04:07:17;18.20;54.70
1021;DHT22;499;42.648;23.270;2022-08-03T04:10:02;18.30;54.00
1021;DHT22;499;42.648;23.270;2022-08-03T04:12:50;18.50;54.60
1021;DHT22;499;42.648;23.270;2022-08-03T04:15:21;18.60;54.40
1021;DHT22;499;42.648;23.270;2022-08-03T04:17:49;18.70;52.70
1021;DHT22;499;42.648;23.270;2022-08-03T04:20:19;18.70;50.50
1021;DHT22;499;42.648;23.270;2022-08-03T04:22:47;18.80;47.90
1021;DHT22;499;42.648;23.270;2022-08-03T04:25:17;18.80;45.90
1021;DHT22;499;42.648;23.270;2022-08-03T04:27:50;18.80;43.40
1021;DHT22;499;42.648;23.270;2022-08-03T04:30:21;18.90;45.10
1021;DHT22;499;42.648;23.270;2022-08-03T04:32:50;19.10;43.70
1021;DHT22;499;42.648;23.270;2022-08-03T04:35:17;19.30;42.20
1021;DHT22;499;42.648;23.270;2022-08-03T04:37:46;19.40;39.10
1021;DHT22;499;42.648;23.270;2022-08-03T04:40:16;19.40;40.60
1021;DHT22;499;42.648;23.270;2022-08-03T04:42:46;19.50;41.40
1021;DHT22;499;42.648;23.270;2022-08-03T04:45:16;19.60;41.10
1021;DHT22;499;42.648;23.270;2022-08-03T04:47:45;19.80;39.20
1021;DHT22;499;42.648;23.270;2022-08-03T04:50:12;19.90;37.30
1021;DHT22;499;42.648;23.270;2022-08-03T04:52:39;20.00;38.40
1021;DHT22;499;42.648;23.270;2022-08-03T04:55:07;20.00;40.20
1021;DHT22;499;42.648;23.270;2022-08-03T04:57:34;20.10;38.70
1021;DHT22;499;42.648;23.270;2022-08-03T05:00:02;20.20;39.80
1021;DHT22;499;42.648;23.270;2022-08-03T05:02:31;20.10;38.10
1021;DHT22;499;42.648;23.270;2022-08-03T05:04:59;19.90;38.50
1021;DHT22;499;42.648;23.270;2022-08-03T05:07:27;19.90;41.40
1021;DHT22;499;42.648;23.270;2022-08-03T05:09:54;19.90;40.50
1021;DHT22;499;42.648;23.270;2022-08-03T05:12:20;20.00;42.40
1021;DHT22;499;42.648;23.270;2022-08-03T05:14:48;20.10;39.70
1021;DHT22;499;42.648;23.270;2022-08-03T05:17:15;20.20;38.80
1021;DHT22;499;42.648;23.270;2022-08-03T05:19:45;20.10;37.50
1021;DHT22;499;42.648;23.270;2022-08-03T05:22:12;20.00;38.40
1021;DHT22;499;42.648;23.270;2022-08-03T05:24:39;20.00;38.80
1021;DHT22;499;42.648;23.270;2022-08-03T05:27:06;20.10;39.40
1021;DHT22;499;42.648;23.270;2022-08-03T05:29:33;20.10;39.70
1021;DHT22;499;42.648;23.270;2022-08-03T05:32:00;20.20;41.00
1021;DHT22;499;42.648;23.270;2022-08-03T05:34:27;20.40;40.00
1021;DHT22;499;42.648;23.270;2022-08-03T05:36:55;20.50;37.70
1021;DHT22;499;42.648;23.270;2022-08-03T05:39:22;20.50;37.40
1021;DHT22;499;42.648;23.270;2022-08-03T05:41:49;20.40;39.60
1021;DHT22;499;42.648;23.270;2022-08-03T05:44:16;20.50;37.50
1021;DHT22;499;42.648;23.270;2022-08-03T05:46:43;20.50;37.20
1021;DHT22;499;42.648;23.270;2022-08-03T05:49:10;20.50;37.10
1021;DHT22;499;42.648;23.270;2022-08-03T05:51:37;20.60;36.80
1021;DHT22;499;42.648;23.270;2022-08-03T05:54:06;20.70;37.80
1021;DHT22;499;42.648;23.270;2022-08-03T05:56:33;20.90;36.00
1021;DHT22;499;42.648;23.270;2022-08-03T05:59:00;21.00;35.30
1021;DHT22;499;42.648;23.270;2022-08-03T06:01:27;21.20;34.70
1021;DHT22;499;42.648;23.270;2022-08-03T06:03:56;21.10;30.50
1021;DHT22;499;42.648;23.270;2022-08-03T06:06:23;21.20;30.90
1021;DHT22;499;42.648;23.270;2022-08-03T06:08:51;21.30;31.50
1021;DHT22;499;42.648;23.270;2022-08-03T06:11:20;21.50;31.40
1021;DHT22;499;42.648;23.270;2022-08-03T06:13:47;21.50;28.80
1021;DHT22;499;42.648;23.270;2022-08-03T06:16:14;21.50;31.20
1021;DHT22;499;42.648;23.270;2022-08-03T06:18:41;21.70;29.80
1021;DHT22;499;42.648;23.270;2022-08-03T06:21:08;21.80;29.30
1021;DHT22;499;42.648;23.270;2022-08-03T06:23:35;21.90;26.80
1021;DHT22;499;42.648;23.270;2022-08-03T06:26:03;21.90;27.80
1021;DHT22;499;42.648;23.270;2022-08-03T06:28:31;22.00;28.20
1021;DHT22;499;42.648;23.270;2022-08-03T06:30:58;22.00;26.60
1021;DHT22;499;42.648;23.270;2022-08-03T06:33:25;22.00;27.40
1021;DHT22;499;42.648;23.270;2022-08-03T06:35:52;22.00;24.30
1021;DHT22;499;42.648;23.270;2022-08-03T06:38:19;21.90;24.60
1021;DHT22;499;42.648;23.270;2022-08-03T06:40:46;22.00;24.90
1021;DHT22;499;42.648;23.270;2022-08-03T06:43:13;22.10;25.00
1021;DHT22;499;42.648;23.270;2022-08-03T06:45:42;22.20;24.10
1021;DHT22;499;42.648;23.270;2022-08-03T06:48:10;22.20;22.80
1021;DHT22;499;42.648;23.270;2022-08-03T06:50:38;22.20;22.90
1021;DHT22;499;42.648;23.270;2022-08-03T06:53:06;22.30;22.10
1021;DHT22;499;42.648;23.270;2022-08-03T06:55:33;22.20;22.20
1021;DHT22;499;42.648;23.270;2022-08-03T06:58:01;22.40;22.10
1021;DHT22;499;42.648;23.270;2022-08-03T07:00:28;22.30;22.10
1021;DHT22;499;42.648;23.270;2022-08-03T07:02:57;22.40;22.20
1021;DHT22;499;42.648;23.270;2022-08-03T07:05:25;22.40;22.40
1021;DHT22;499;42.648;23.270;2022-08-03T07:07:54;22.50;22.30
1021;DHT22;499;42.648;23.270;2022-08-03T07:10:22;22.50;21.50
1021;DHT22;499;42.648;23.270;2022-08-03T07:12:49;22.60;22.90
1021;DHT22;499;42.648;23.270;2022-08-03T07:15:16;22.70;21.60
1021;DHT22;499;42.648;23.270;2022-08-03T07:17:43;22.80;22.40
1021;DHT22;499;42.648;23.270;2022-08-03T07:20:12;22.90;21.90
1021;DHT22;499;42.648;23.270;2022-08-03T07:22:39;22.90;21.50
1021;DHT22;499;42.648;23.270;2022-08-03T07:25:07;22.90;21.60
1021;DHT22;499;42.648;23.270;2022-08-03T07:27:34;23.10;20.80
1021;DHT22;499;42.648;23.270;2022-08-03T07:30:05;23.10;21.30
1021;DHT22;499;42.648;23.270;2022-08-03T07:32:32;23.30;19.70
1021;DHT22;499;42.648;23.270;2022-08-03T07:35:00;23.30;20.30
1021;DHT22;499;42.648;23.270;2022-08-03T07:37:29;23.40;20.40
1021;DHT22;499;42.648;23.270;2022-08-03T07:39:56;23.50;20.50
1021;DHT22;499;42.648;23.270;2022-08-03T07:42:23;23.60;20.40
1021;DHT22;499;42.648;23.270;2022-08-03T07:44:50;23.70;19.80
1021;DHT22;499;42.648;23.270;2022-08-03T07:47:18;23.80;19.70
1021;DHT22;499;42.648;23.270;2022-08-03T07:49:45;24.00;19.20
1021;DHT22;499;42.648;23.270;2022-08-03T07:52:12;24.00;18.60
1021;DHT22;499;42.648;23.270;2022-08-03T07:54:58;23.90;18.10
1021;DHT22;499;42.648;23.270;2022-08-03T07:57:25;23.90;17.90
1021;DHT22;499;42.648;23.270;2022-08-03T07:59:52;23.90;18.20
1021;DHT22;499;42.648;23.270;2022-08-03T08:02:19;23.90;18.00
1021;DHT22;499;42.648;23.270;2022-08-03T08:04:46;23.80;18.30
1021;DHT22;499;42.648;23.270;2022-08-03T08:07:13;24.00;17.40
1021;DHT22;499;42.648;23.270;2022-08-03T08:09:40;23.90;17.30
1021;DHT22;499;42.648;23.270;2022-08-03T08:12:08;24.20;18.00
1021;DHT22;499;42.648;23.270;2022-08-03T08:14:37;24.30;17.00
1021;DHT22;499;42.648;23.270;2022-08-03T08:17:04;24.50;16.90
1021;DHT22;499;42.648;23.270;2022-08-03T08:19:31;24.50;15.70
1021;DHT22;499;42.648;23.270;2022-08-03T08:21:58;24.60;16.20
1021;DHT22;499;42.648;23.270;2022-08-03T08:24:25;24.70;16.00
1021;DHT22;499;42.648;23.270;2022-08-03T08:26:54;24.80;15.50
1021;DHT22;499;42.648;23.270;2022-08-03T08:29:23;24.90;14.10
1021;DHT22;499;42.648;23.270;2022-08-03T08:31:50;24.80;14.30
1021;DHT22;499;42.648;23.270;2022-08-03T08:34:17;24.90;14.40
1021;DHT22;499;42.648;23.270;2022-08-03T08:36:44;25.00;14.10
1021;DHT22;499;42.648;23.270;2022-08-03T08:39:11;25.10;13.80
1021;DHT22;499;42.648;23.270;2022-08-03T08:41:38;25.20;13.40
1021;DHT22;499;42.648;23.270;2022-08-03T08:44:05;25.20;13.40
1021;DHT22;499;42.648;23.270;2022-08-03T08:46:37;25.20;14.20
1021;DHT22;499;42.648;23.270;2022-08-03T08:49:08;25.20;13.40
1021;DHT22;499;42.648;23.270;2022-08-03T08:51:36;25.30;12.90
1021;DHT22;499;42.648;23.270;2022-08-03T08:54:06;25.40;12.30
1021;DHT22;499;42.648;23.270;2022-08-03T08:56:35;25.40;12.60
1021;DHT22;499;42.648;23.270;2022-08-03T08:59:03;25.40;12.90
1021;DHT22;499;42.648;23.270;2022-08-03T09:01:30;25.40;13.50
1021;DHT22;499;42.648;23.270;2022-08-03T09:03:58;25.50;14.10
1021;DHT22;499;42.648;23.270;2022-08-03T09:06:25;25.60;13.20
1021;DHT22;499;42.648;23.270;2022-08-03T09:08:52;25.80;12.20
1021;DHT22;499;42.648;23.270;2022-08-03T09:11:22;26.00;12.00
1021;DHT22;499;42.648;23.270;2022-08-03T09:13:49;26.20;11.80
1021;DHT22;499;42.648;23.270;2022-08-03T09:16:19;26.40;10.90
1021;DHT22;499;42.648;23.270;2022-08-03T09:18:47;26.60;10.70
1021;DHT22;499;42.648;23.270;2022-08-03T09:21:18;26.60;10.40
1021;DHT22;499;42.648;23.270;2022-08-03T09:23:46;26.60;10.40
1021;DHT22;499;42.648;23.270;2022-08-03T09:26:20;26.60;8.70
1021;DHT22;499;42.648;23.270;2022-08-03T09:28:53;26.80;10.00
1021;DHT22;499;42.648;23.270;2022-08-03T09:31:29;26.90;10.60
1021;DHT22;499;42.648;23.270;2022-08-03T09:33:57;27.10;10.50
1021;DHT22;499;42.648;23.270;2022-08-03T09:36:39;27.00;9.50
1021;DHT22;499;42.648;23.270;2022-08-03T09:39:07;26.90;10.80
1021;DHT22;499;42.648;23.270;2022-08-03T09:41:38;27.10;10.80
1021;DHT22;499;42.648;23.270;2022-08-03T09:44:05;27.20;10.30
1021;DHT22;499;42.648;23.270;2022-08-03T09:46:47;27.20;8.70
1021;DHT22;499;42.648;23.270;2022-08-03T09:49:14;27.30;8.30
1021;DHT22;499;42.648;23.270;2022-08-03T09:51:42;27.20;8.40
1021;DHT22;499;42.648;23.270;2022-08-03T09:54:09;27.30;9.40
1021;DHT22;499;42.648;23.270;2022-08-03T09:56:41;27.30;7.60
1021;DHT22;499;42.648;23.270;2022-08-03T09:59:09;27.20;8.10
1021;DHT22;499;42.648;23.270;2022-08-03T10:01:37;27.40;9.30
1021;DHT22;499;42.648;23.270;2022-08-03T10:04:11;27.30;8.00
1021;DHT22;499;42.648;23.270;2022-08-03T10:06:39;27.50;9.10
1021;DHT22;499;42.648;23.270;2022-08-03T10:09:09;27.60;7.30
1021;DHT22;499;42.648;23.270;2022-08-03T10:11:37;27.70;7.90
1021;DHT22;499;42.648;23.270;2022-08-03T10:14:06;27.70;7.90
1021;DHT22;499;42.648;23.270;2022-08-03T10:16:35;27.70;8.40
1021;DHT22;499;42.648;23.270;2022-08-03T10:19:04;27.90;8.70
1021;DHT22;499;42.648;23.270;2022-08-03T10:21:33;28.10;6.50
1021;DHT22;499;42.648;23.270;2022-08-03T10:24:03;27.60;6.20
1021;DHT22;499;42.648;23.270;2022-08-03T10:26:33;27.50;7.50
1021;DHT22;499;42.648;23.270;2022-08-03T10:29:03;27.60;8.30
1021;DHT22;499;42.648;23.270;2022-08-03T10:31:37;27.70;7.50
1021;DHT22;499;42.648;23.270;2022-08-03T10:34:08;27.80;6.30
1021;DHT22;499;42.648;23.270;2022-08-03T10:36:38;27.70;6.30
1021;DHT22;499;42.648;23.270;2022-08-03T10:39:06;27.90;7.30
1021;DHT22;499;42.648;23.270;2022-08-03T10:41:39;27.90;6.40
1021;DHT22;499;42.648;23.270;2022-08-03T10:44:09;28.00;6.80
1021;DHT22;499;42.648;23.270;2022-08-03T10:46:38;28.00;6.50
1021;DHT22;499;42.648;23.270;2022-08-03T10:49:06;28.10;6.50
1021;DHT22;499;42.648;23.270;2022-08-03T10:51:33;28.20;6.50
1021;DHT22;499;42.648;23.270;2022-08-03T10:54:01;28.50;6.70
1021;DHT22;499;42.648;23.270;2022-08-03T10:56:39;28.60;6.70
1021;DHT22;499;42.648;23.270;2022-08-03T10:59:56;28.50;6.50
1021;DHT22;499;42.648;23.270;2022-08-03T11:03:01;28.30;6.00
1021;DHT22;499;42.648;23.270;2022-08-03T11:05:30;28.00;5.90
1021;DHT22;499;42.648;23.270;2022-08-03T11:08:17;27.70;6.30
1021;DHT22;499;42.648;23.270;2022-08-03T11:10:44;27.60;7.70
1021;DHT22;499;42.648;23.270;2022-08-03T11:13:15;27.50;7.50
1021;DHT22;499;42.648;23.270;2022-08-03T11:15:43;27.40;6.70
1021;DHT22;499;42.648;23.270;2022-08-03T11:18:11;27.40;8.10
1021;DHT22;499;42.648;23.270;2022-08-03T11:20:49;27.50;8.40
1021;DHT22;499;42.648;23.270;2022-08-03T11:23:19;27.50;6.20
1021;DHT22;499;42.648;23.270;2022-08-03T11:26:09;27.40;6.30
1021;DHT22;499;42.648;23.270;2022-08-03T11:28:38;27.50;7.70
1021;DHT22;499;42.648;23.270;2022-08-03T11:31:44;27.50;7.30
1021;DHT22;499;42.648;23.270;2022-08-03T11:34:14;27.60;6.20
1021;DHT22;499;42.648;23.270;2022-08-03T11:39:47;28.00;6.40
1021;DHT22;499;42.648;23.270;2022-08-03T11:42:42;28.10;5.40
1021;DHT22;499;42.648;23.270;2022-08-03T11:45:13;28.30;5.20
1021;DHT22;499;42.648;23.270;2022-08-03T11:47:40;28.50;5.50
1021;DHT22;499;42.648;23.270;2022-08-03T11:50:09;28.70;4.10
1021;DHT22;499;42.648;23.270;2022-08-03T11:52:39;28.70;4.60
1021;DHT22;499;42.648;23.270;2022-08-03T11:55:14;28.80;5.10
1021;DHT22;499;42.648;23.270;2022-08-03T11:57:43;28.90;4.40
1021;DHT22;499;42.648;23.270;2022-08-03T12:00:30;28.90;4.70
1021;DHT22;499;42.648;23.270;2022-08-03T12:02:59;28.40;3.40
1021;DHT22;499;42.648;23.270;2022-08-03T12:05:35;28.40;4.90
1021;DHT22;499;42.648;23.270;2022-08-03T12:08:03;28.30;4.50
1021;DHT22;499;42.648;23.270;2022-08-03T12:10:30;28.10;5.00
1021;DHT22;499;42.648;23.270;2022-08-03T12:12:58;28.00;6.40
1021;DHT22;499;42.648;23.270;2022-08-03T12:15:28;27.90;5.30
1021;DHT22;499;42.648;23.270;2022-08-03T12:17:58;27.90;5.10
1021;DHT22;499;42.648;23.270;2022-08-03T12:20:27;27.60;4.10
1021;DHT22;499;42.648;23.270;2022-08-03T12:23:01;27.60;4.90
1021;DHT22;499;42.648;23.270;2022-08-03T12:25:29;27.80;5.50
1021;DHT22;499;42.648;23.270;2022-08-03T12:28:14;28.00;5.60
1021;DHT22;499;42.648;23.270;2022-08-03T12:30:47;27.80;5.60
1021;DHT22;499;42.648;23.270;2022-08-03T12:33:16;27.80;6.30
1021;DHT22;499;42.648;23.270;2022-08-03T12:35:46;28.00;6.40
1021;DHT22;499;42.648;23.270;2022-08-03T12:38:19;27.90;6.40
1021;DHT22;499;42.648;23.270;2022-08-03T12:40:55;27.70;6.30
1021;DHT22;499;42.648;23.270;2022-08-03T12:43:23;27.60;7.70
1021;DHT22;499;42.648;23.270;2022-08-03T12:46:06;27.70;7.50
1021;DHT22;499;42.648;23.270;2022-08-03T12:48:33;27.70;8.10
1021;DHT22;499;42.648;23.270;2022-08-03T12:51:07;27.70;8.30
1021;DHT22;499;42.648;23.270;2022-08-03T12:53:35;27.90;8.80
1021;DHT22;499;42.648;23.270;2022-08-03T12:56:03;28.10;8.50
1021;DHT22;499;42.648;23.270;2022-08-03T12:58:33;28.20;6.50
1021;DHT22;499;42.648;23.270;2022-08-03T13:01:02;28.40;8.30
1021;DHT22;499;42.648;23.270;2022-08-03T13:03:38;28.60;7.10
1021;DHT22;499;42.648;23.270;2022-08-03T13:06:10;28.80;6.90
1021;DHT22;499;42.648;23.270;2022-08-03T13:08:38;28.90;5.40
1021;DHT22;499;42.648;23.270;2022-08-03T13:11:22;28.90;5.90
1021;DHT22;499;42.648;23.270;2022-08-03T13:13:49;28.80;6.20
1021;DHT22;499;42.648;23.270;2022-08-03T13:16:18;28.70;6.80
1021;DHT22;499;42.648;23.270;2022-08-03T13:18:46;28.30;6.60
1021;DHT22;499;42.648;23.270;2022-08-03T13:21:14;28.10;6.50
1021;DHT22;499;42.648;23.270;2022-08-03T13:23:41;28.10;6.50
1021;DHT22;499;42.648;23.270;2022-08-03T13:26:08;28.10;6.50
1021;DHT22;499;42.648;23.270;2022-08-03T13:28:35;28.10;6.50
1021;DHT22;499;42.648;23.270;2022-08-03T13:31:02;28.20;6.50
1021;DHT22;499;42.648;23.270;2022-08-03T13:33:31;28.10;6.50
1021;DHT22;499;42.648;23.270;2022-08-03T13:35:58;28.00;6.40
1021;DHT22;499;42.648;23.270;2022-08-03T13:38:25;28.00;6.90
1021;DHT22;499;42.648;23.270;2022-08-03T13:40:52;28.20;7.00
1021;DHT22;499;42.648;23.270;2022-08-03T13:43:19;28.40;6.60
1021;DHT22;499;42.648;23.270;2022-08-03T13:45:47;28.20;6.50
1021;DHT22;499;42.648;23.270;2022-08-03T13:48:14;28.30;6.60
1021;DHT22;499;42.648;23.270;2022-08-03T13:50:42;28.30;6.60
1021;DHT22;499;42.648;23.270;2022-08-03T13:53:09;28.40;6.60
1021;DHT22;499;42.648;23.270;2022-08-03T13:55:36;28.50;6.70
1021;DHT22;499;42.648;23.270;2022-08-03T13:58:03;28.50;6.70
1021;DHT22;499;42.648;23.270;2022-08-03T14:00:32;28.10;7.50
1021;DHT22;499;42.648;23.270;2022-08-03T14:03:01;28.30;8.70
1021;DHT22;499;42.648;23.270;2022-08-03T14:05:28;28.10;8.90
1021;DHT22;499;42.648;23.270;2022-08-03T14:07:57;27.90;9.70
1021;DHT22;499;42.648;23.270;2022-08-03T14:10:25;27.90;10.10
1021;DHT22;499;42.648;23.270;2022-08-03T14:12:52;28.00;9.60
1021;DHT22;499;42.648;23.270;2022-08-03T14:15:20;27.90;10.30
1021;DHT22;499;42.648;23.270;2022-08-03T14:17:48;27.90;9.30
1021;DHT22;499;42.648;23.270;2022-08-03T14:20:15;27.80;9.50
1021;DHT22;499;42.648;23.270;2022-08-03T14:22:42;27.70;9.90
1021;DHT22;499;42.648;23.270;2022-08-03T14:25:10;27.90;9.70
1021;DHT22;499;42.648;23.270;2022-08-03T14:27:37;28.00;9.20
1021;DHT22;499;42.648;23.270;2022-08-03T14:30:05;28.20;8.60
1021;DHT22;499;42.648;23.270;2022-08-03T14:32:32;28.30;7.90
1021;DHT22;499;42.648;23.270;2022-08-03T14:34:59;28.40;8.30
1021;DHT22;499;42.648;23.270;2022-08-03T14:37:26;28.40;7.50
1021;DHT22;499;42.648;23.270;2022-08-03T14:39:53;28.20;7.40
1021;DHT22;499;42.648;23.270;2022-08-03T14:42:21;28.20;8.20
1021;DHT22;499;42.648;23.270;2022-08-03T14:44:49;28.10;8.10
1021;DHT22;499;42.648;23.270;2022-08-03T14:47:16;28.30;8.70
1021;DHT22;499;42.648;23.270;2022-08-03T14:49:43;28.30;8.60
1021;DHT22;499;42.648;23.270;2022-08-03T14:52:10;28.40;9.10
1021;DHT22;499;42.648;23.270;2022-08-03T14:54:37;28.50;8.20
1021;DHT22;499;42.648;23.270;2022-08-03T14:57:04;28.40;8.60
1021;DHT22;499;42.648;23.270;2022-08-03T14:59:32;28.30;9.10
1021;DHT22;499;42.648;23.270;2022-08-03T15:01:59;28.40;9.40
1021;DHT22;499;42.648;23.270;2022-08-03T15:04:26;28.30;9.00
1021;DHT22;499;42.648;23.270;2022-08-03T15:06:54;28.10;9.30
1021;DHT22;499;42.648;23.270;2022-08-03T15:09:21;28.00;9.00
1021;DHT22;499;42.648;23.270;2022-08-03T15:11:48;27.80;10.50
1021;DHT22;499;42.648;23.270;2022-08-03T15:14:14;27.80;11.30
1021;DHT22;499;42.648;23.270;2022-08-03T15:16:43;27.80;11.40
1021;DHT22;499;42.648;23.270;2022-08-03T15:19:10;27.50;12.30
1021;DHT22;499;42.648;23.270;2022-08-03T15:21:38;27.60;11.90
1021;DHT22;499;42.648;23.270;2022-08-03T15:24:05;27.70;11.90
1021;DHT22;499;42.648;23.270;2022-08-03T15:26:32;27.80;11.90
1021;DHT22;499;42.648;23.270;2022-08-03T15:28:59;28.10;11.40
1021;DHT22;499;42.648;23.270;2022-08-03T15:31:27;28.50;10.20
1021;DHT22;499;42.648;23.270;2022-08-03T15:33:55;28.50;10.00
1021;DHT22;499;42.648;23.270;2022-08-03T15:36:22;28.00;10.70
1021;DHT22;499;42.648;23.270;2022-08-03T15:38:50;27.40;11.90
1021;DHT22;499;42.648;23.270;2022-08-03T15:41:17;26.90;13.50
1021;DHT22;499;42.648;23.270;2022-08-03T15:43:45;26.50;14.70
1021;DHT22;499;42.648;23.270;2022-08-03T15:46:12;26.30;14.30
1021;DHT22;499;42.648;23.270;2022-08-03T15:48:40;26.00;15.90
1021;DHT22;499;42.648;23.270;2022-08-03T15:51:09;25.70;15.90
1021;DHT22;499;42.648;23.270;2022-08-03T15:53:36;25.50;16.40
1021;DHT22;499;42.648;23.270;2022-08-03T15:56:04;25.40;17.50
1021;DHT22;499;42.648;23.270;2022-08-03T15:58:32;25.50;17.70
1021;DHT22;499;42.648;23.270;2022-08-03T16:01:00;25.70;17.80
1021;DHT22;499;42.648;23.270;2022-08-03T16:03:28;25.80;16.70
1021;DHT22;499;42.648;23.270;2022-08-03T16:05:59;25.80;15.20
1021;DHT22;499;42.648;23.270;2022-08-03T16:08:28;25.80;14.90
1021;DHT22;499;42.648;23.270;2022-08-03T16:10:55;25.80;14.70
1021;DHT22;499;42.648;23.270;2022-08-03T16:13:22;25.80;13.70
1021;DHT22;499;42.648;23.270;2022-08-03T16:15:49;25.70;13.70
1021;DHT22;499;42.648;23.270;2022-08-03T16:18:17;25.70;13.70
1021;DHT22;499;42.648;23.270;2022-08-03T16:20:44;25.50;13.60
1021;DHT22;499;42.648;23.270;2022-08-03T16:23:13;25.40;13.50